createdAt,value
2023-01-28T00:01:57.434Z,3.57
2023-01-28T00:04:24.722Z,3.60
2023-01-28T00:06:53.688Z,3.54
2023-01-28T00:09:20.554Z,3.57
2023-01-28T00:11:48.196Z,3.61
2023-01-28T00:14:16.657Z,3.61
2023-01-28T00:16:43.870Z,3.63
2023-01-28T00:19:10.888Z,3.58
2023-01-28T00:21:38.077Z,3.54
2023-01-28T00:24:07.058Z,3.55
2023-01-28T00:26:34.219Z,3.57
2023-01-28T00:29:02.421Z,3.53
2023-01-28T00:31:31.275Z,3.47
2023-01-28T00:33:58.503Z,3.42
2023-01-28T00:36:27.067Z,3.38
2023-01-28T00:38:56.249Z,3.40
2023-01-28T00:41:25.169Z,3.42
2023-01-28T00:43:52.776Z,3.41
2023-01-28T00:46:20.945Z,3.43
2023-01-28T00:48:49.356Z,3.45
2023-01-28T00:51:18.150Z,3.47
2023-01-28T00:53:45.144Z,3.45
2023-01-28T00:56:14.953Z,3.48
2023-01-28T00:58:42.208Z,3.51
2023-01-28T01:01:10.417Z,3.45
2023-01-28T01:03:37.463Z,3.41
2023-01-28T01:06:07.139Z,3.40
2023-01-28T01:08:40.058Z,3.39
2023-01-28T01:11:08.383Z,3.37
2023-01-28T01:13:35.851Z,3.31
2023-01-28T01:16:05.137Z,3.32
2023-01-28T01:18:31.993Z,3.39
2023-01-28T01:20:59.420Z,3.34
2023-01-28T01:23:28.224Z,3.39
2023-01-28T01:25:55.679Z,3.43
2023-01-28T01:28:23.255Z,3.41
2023-01-28T01:30:50.887Z,3.37
2023-01-28T01:33:18.026Z,3.36
2023-01-28T01:35:45.643Z,3.35
2023-01-28T01:38:12.940Z,3.28
2023-01-28T01:40:41.582Z,3.27
2023-01-28T01:43:16.926Z,3.27
2023-01-28T01:45:47.733Z,3.25
2023-01-28T01:48:20.144Z,3.24
2023-01-28T01:50:53.538Z,3.24
2023-01-28T01:53:24.289Z,3.27
2023-01-28T01:55:57.924Z,3.21
2023-01-28T01:58:28.998Z,3.14
2023-01-28T02:00:56.247Z,3.18
2023-01-28T02:03:29.502Z,3.16
2023-01-28T02:05:56.669Z,3.18
2023-01-28T02:08:23.761Z,3.17
2023-01-28T02:10:56.589Z,3.09
2023-01-28T02:13:27.666Z,3.04
2023-01-28T02:15:56.080Z,3.13
2023-01-28T02:18:23.038Z,3.18
2023-01-28T02:21:34.519Z,3.20
2023-01-28T02:24:19.134Z,3.23
2023-01-28T02:27:15.293Z,3.20
2023-01-28T02:29:50.255Z,3.21
2023-01-28T02:32:24.268Z,3.19
2023-01-28T02:34:56.807Z,3.20
2023-01-28T02:37:29.754Z,3.17
2023-01-28T02:40:01.423Z,3.17
2023-01-28T02:42:31.884Z,3.19
2023-01-28T02:45:00.198Z,3.19
2023-01-28T02:47:46.064Z,3.19
2023-01-28T02:50:15.989Z,3.19
2023-01-28T02:53:15.195Z,3.17
2023-01-28T02:55:45.989Z,3.19
2023-01-28T02:58:23.944Z,3.18
2023-01-28T03:01:02.162Z,3.16
2023-01-28T03:03:36.367Z,3.19
2023-01-28T03:06:08.870Z,3.23
2023-01-28T03:08:59.666Z,3.24
2023-01-28T03:11:47.865Z,3.22
2023-01-28T03:14:37.447Z,3.19
2023-01-28T03:17:27.884Z,3.18
2023-01-28T03:20:13.721Z,3.17
2023-01-28T03:23:06.375Z,3.19
2023-01-28T03:25:54.331Z,3.16
2023-01-28T03:28:43.729Z,3.15
2023-01-28T03:31:33.302Z,3.20
2023-01-28T03:34:23.256Z,3.23
2023-01-28T03:36:51.157Z,3.23
2023-01-28T03:39:20.076Z,3.19
2023-01-28T03:41:56.685Z,3.16
2023-01-28T03:44:43.516Z,3.13
2023-01-28T03:47:11.950Z,3.13
2023-01-28T03:49:41.326Z,3.17
2023-01-28T03:52:09.083Z,3.19
2023-01-28T03:54:36.211Z,3.15
2023-01-28T03:57:03.991Z,3.10
2023-01-28T03:59:30.978Z,3.14
2023-01-28T04:01:58.331Z,3.13
2023-01-28T04:04:26.676Z,3.10
2023-01-28T04:06:55.588Z,3.09
2023-01-28T04:09:23.301Z,3.16
2023-01-28T04:11:51.032Z,3.21
2023-01-28T04:14:18.179Z,3.24
2023-01-28T04:16:45.959Z,3.19
2023-01-28T04:19:13.772Z,3.21
2023-01-28T04:21:41.253Z,3.19
2023-01-28T04:24:10.061Z,3.14
2023-01-28T04:26:37.422Z,3.14
2023-01-28T04:29:04.519Z,3.14
2023-01-28T04:31:32.268Z,3.14
2023-01-28T04:33:59.175Z,3.10
2023-01-28T04:36:26.807Z,3.09
2023-01-28T04:38:53.788Z,3.09
2023-01-28T04:41:22.263Z,3.03
2023-01-28T04:43:49.297Z,3.03
2023-01-28T04:46:17.037Z,2.99
2023-01-28T04:48:43.930Z,3.01
2023-01-28T04:51:11.187Z,2.99
2023-01-28T04:53:38.066Z,3.04
2023-01-28T04:56:05.387Z,3.04
2023-01-28T04:58:33.686Z,3.09
2023-01-28T05:01:01.239Z,3.06
2023-01-28T05:03:28.225Z,3.03
2023-01-28T05:05:55.544Z,3.04
2023-01-28T05:08:22.490Z,3.11
2023-01-28T05:10:49.729Z,3.05
2023-01-28T05:13:16.881Z,3.04
2023-01-28T05:15:51.289Z,3.05
2023-01-28T05:18:18.257Z,3.09
2023-01-28T05:20:45.490Z,3.10
2023-01-28T05:23:12.374Z,3.09
2023-01-28T05:25:39.842Z,3.08
2023-01-28T05:28:06.775Z,3.05
2023-01-28T05:30:34.057Z,3.04
2023-01-28T05:33:02.558Z,3.04
2023-01-28T05:35:29.850Z,2.96
2023-01-28T05:37:56.743Z,2.95
2023-01-28T05:40:24.013Z,2.94
2023-01-28T05:42:50.962Z,2.99
2023-01-28T05:45:18.183Z,3.02
2023-01-28T05:47:45.911Z,3.08
2023-01-28T05:50:15.703Z,3.09
2023-01-28T05:52:44.301Z,3.11
2023-01-28T05:55:11.790Z,3.10
2023-01-28T05:57:38.708Z,3.09
2023-01-28T06:00:07.146Z,3.05
2023-01-28T06:02:34.331Z,3.07
2023-01-28T06:05:01.618Z,3.01
2023-01-28T06:07:30.022Z,2.96
2023-01-28T06:09:57.168Z,2.96
2023-01-28T06:12:24.062Z,2.99
2023-01-28T06:14:51.158Z,2.97
2023-01-28T06:17:18.073Z,3.02
2023-01-28T06:19:45.432Z,3.05
2023-01-28T06:22:12.289Z,3.08
2023-01-28T06:24:40.937Z,3.12
2023-01-28T06:27:08.347Z,3.12
2023-01-28T06:29:35.553Z,3.15
2023-01-28T06:32:02.544Z,3.14
2023-01-28T06:34:29.859Z,3.15
2023-01-28T06:36:56.817Z,3.16
2023-01-28T06:39:24.135Z,3.14
2023-01-28T06:41:52.880Z,3.17
2023-01-28T06:44:20.068Z,3.23
2023-01-28T06:46:47.081Z,3.25
2023-01-28T06:49:14.291Z,3.30
2023-01-28T06:51:41.388Z,3.30
2023-01-28T06:54:08.642Z,3.30
2023-01-28T06:56:35.669Z,3.42
2023-01-28T06:59:04.410Z,3.50
2023-01-28T07:01:31.653Z,3.59
2023-01-28T07:03:58.954Z,3.57
2023-01-28T07:06:25.922Z,3.60
2023-01-28T07:08:53.205Z,3.58
2023-01-28T07:11:20.214Z,3.59
2023-01-28T07:13:47.653Z,3.74
2023-01-28T07:16:15.951Z,4.18
2023-01-28T07:18:43.131Z,4.43
2023-01-28T07:21:10.120Z,4.59
2023-01-28T07:23:37.456Z,4.71
2023-01-28T07:26:05.167Z,4.51
2023-01-28T07:28:32.426Z,4.08
2023-01-28T07:30:59.540Z,4.01
2023-01-28T07:33:28.235Z,3.89
2023-01-28T07:35:55.267Z,3.72
2023-01-28T07:38:22.498Z,3.11
2023-01-28T07:40:49.543Z,2.67
2023-01-28T07:43:16.695Z,2.37
2023-01-28T07:45:43.669Z,2.35
2023-01-28T07:48:13.671Z,2.58
2023-01-28T07:50:42.115Z,2.60
2023-01-28T07:53:10.939Z,2.83
2023-01-28T07:55:38.264Z,3.04
2023-01-28T07:58:07.573Z,3.22
2023-01-28T08:00:35.267Z,3.35
2023-01-28T08:03:04.171Z,3.48
2023-01-28T08:05:39.651Z,3.55
2023-01-28T08:08:08.831Z,3.61
2023-01-28T08:10:36.467Z,3.57
2023-01-28T08:13:04.492Z,3.55
2023-01-28T08:15:35.136Z,3.55
2023-01-28T08:18:04.071Z,3.70
2023-01-28T08:20:31.087Z,3.80
2023-01-28T08:23:13.067Z,3.81
2023-01-28T08:25:40.668Z,3.74
2023-01-28T08:28:08.055Z,3.75
2023-01-28T08:30:35.665Z,3.76
2023-01-28T08:33:02.969Z,3.83
2023-01-28T08:35:30.277Z,3.82
2023-01-28T08:37:59.752Z,3.75
2023-01-28T08:40:28.787Z,3.76
2023-01-28T08:42:56.572Z,3.73
2023-01-28T08:45:28.245Z,3.64
2023-01-28T08:47:57.321Z,3.65
2023-01-28T08:50:25.896Z,3.72
2023-01-28T08:52:57.263Z,3.76
2023-01-28T08:55:24.659Z,3.86
2023-01-28T08:57:53.734Z,3.82
2023-01-28T09:00:21.648Z,3.80
2023-01-28T09:02:52.143Z,3.73
2023-01-28T09:05:19.985Z,3.19
2023-01-28T09:07:48.025Z,2.74
2023-01-28T09:10:16.632Z,2.45
2023-01-28T09:12:44.724Z,2.25
2023-01-28T09:15:13.278Z,2.15
2023-01-28T09:17:40.644Z,2.05
2023-01-28T09:20:08.894Z,2.06
2023-01-28T09:22:36.486Z,2.06
2023-01-28T09:25:04.013Z,2.03
2023-01-28T09:27:31.815Z,1.89
2023-01-28T09:29:58.884Z,2.02
2023-01-28T09:32:27.534Z,2.01
2023-01-28T09:34:54.496Z,1.77
2023-01-28T09:37:21.655Z,1.93
2023-01-28T09:39:48.590Z,1.91
2023-01-28T09:42:41.235Z,2.24
2023-01-28T09:45:16.239Z,2.61
2023-01-28T09:47:50.748Z,2.88
2023-01-28T09:50:23.640Z,3.13
2023-01-28T09:52:54.063Z,3.41
2023-01-28T09:55:30.007Z,3.55
2023-01-28T09:57:57.527Z,3.56
2023-01-28T10:00:29.889Z,3.67
2023-01-28T10:03:29.384Z,3.76
2023-01-28T10:06:04.842Z,3.91
2023-01-28T10:08:50.568Z,3.97
2023-01-28T10:11:24.887Z,4.00
2023-01-28T10:13:59.222Z,4.00
2023-01-28T10:16:33.495Z,4.00
2023-01-28T10:19:08.223Z,3.96
2023-01-28T10:21:41.413Z,4.01
2023-01-28T10:24:15.798Z,4.14
2023-01-28T10:26:44.576Z,4.21
2023-01-28T10:29:17.231Z,4.27
2023-01-28T10:31:52.364Z,4.25
2023-01-28T10:34:22.234Z,4.30
2023-01-28T10:36:50.515Z,4.31
2023-01-28T10:39:21.398Z,4.37
2023-01-28T10:41:57.404Z,4.30
2023-01-28T10:44:32.598Z,4.28
2023-01-28T10:47:03.668Z,4.24
2023-01-28T10:49:42.006Z,4.17
2023-01-28T10:52:13.428Z,4.20
2023-01-28T10:54:40.635Z,4.18
2023-01-28T10:57:13.111Z,4.28
2023-01-28T10:59:41.912Z,4.28
2023-01-28T11:02:26.063Z,4.28
2023-01-28T11:05:06.808Z,4.28
2023-01-28T11:07:33.886Z,4.38
2023-01-28T11:10:01.648Z,4.42
2023-01-28T11:12:30.610Z,4.32
2023-01-28T11:15:00.455Z,4.46
2023-01-28T11:17:30.930Z,4.55
2023-01-28T11:20:00.694Z,4.51
2023-01-28T11:22:34.264Z,4.47
2023-01-28T11:25:03.734Z,4.55
2023-01-28T11:27:33.172Z,4.51
2023-01-28T11:30:04.706Z,4.51
2023-01-28T11:32:32.009Z,4.53
2023-01-28T11:35:00.586Z,4.57
2023-01-28T11:37:30.346Z,4.61
2023-01-28T11:40:20.100Z,4.64
2023-01-28T11:42:50.156Z,4.64
2023-01-28T11:45:19.159Z,4.74
2023-01-28T11:47:56.911Z,5.05
2023-01-28T11:50:37.287Z,5.37
2023-01-28T11:53:33.637Z,5.54
2023-01-28T11:56:13.700Z,5.58
2023-01-28T11:58:51.656Z,5.67
2023-01-28T12:01:31.511Z,5.64
2023-01-28T12:04:19.122Z,5.46
2023-01-28T12:07:00.920Z,5.18
2023-01-28T12:09:36.021Z,5.08
2023-01-28T12:12:20.205Z,5.22
2023-01-28T12:15:06.080Z,5.22
2023-01-28T12:17:45.706Z,5.13
2023-01-28T12:20:22.538Z,4.98
2023-01-28T12:23:15.046Z,4.84
2023-01-28T12:25:58.769Z,4.85
2023-01-28T12:28:37.815Z,4.83
2023-01-28T12:31:31.987Z,4.84
2023-01-28T12:34:23.962Z,4.80
2023-01-28T12:36:59.564Z,4.81
2023-01-28T12:39:41.278Z,4.83
2023-01-28T12:42:13.486Z,4.79
2023-01-28T12:44:46.977Z,4.67
2023-01-28T12:47:19.654Z,4.63
2023-01-28T12:49:50.936Z,4.64
2023-01-28T12:52:24.310Z,4.63
2023-01-28T12:54:58.630Z,4.50
2023-01-28T12:57:30.528Z,4.45
2023-01-28T13:00:06.538Z,4.45
2023-01-28T13:02:39.446Z,4.43
2023-01-28T13:05:14.130Z,4.46
2023-01-28T13:07:47.548Z,4.47
2023-01-28T13:10:22.085Z,4.35
2023-01-28T13:12:51.256Z,4.30
2023-01-28T13:15:20.195Z,4.26
2023-01-28T13:17:58.500Z,4.38
2023-01-28T13:20:38.173Z,4.35
2023-01-28T13:23:22.251Z,4.28
2023-01-28T13:25:51.465Z,4.31
2023-01-28T13:28:36.244Z,4.35
2023-01-28T13:31:08.569Z,4.39
2023-01-28T13:33:37.888Z,4.45
2023-01-28T13:36:28.168Z,4.49
2023-01-28T13:39:04.282Z,4.59
2023-01-28T13:41:40.900Z,4.60
2023-01-28T13:44:19.065Z,4.52
2023-01-28T13:46:47.765Z,4.48
2023-01-28T13:49:18.755Z,4.46
2023-01-28T13:51:58.871Z,4.44
2023-01-28T13:54:28.643Z,4.47
2023-01-28T13:57:08.807Z,4.47
2023-01-28T13:59:49.144Z,4.44
2023-01-28T14:02:39.916Z,4.41
2023-01-28T14:05:36.392Z,4.40
2023-01-28T14:08:36.609Z,4.45
2023-01-28T14:11:27.613Z,4.45
2023-01-28T14:14:21.388Z,4.41
2023-01-28T14:16:53.817Z,4.39
2023-01-28T14:19:29.332Z,4.47
2023-01-28T14:21:56.585Z,4.52
2023-01-28T14:24:24.585Z,4.56
2023-01-28T14:27:02.809Z,4.75
2023-01-28T14:29:46.108Z,4.92
2023-01-28T14:32:15.885Z,5.07
2023-01-28T14:34:46.741Z,5.10
2023-01-28T14:37:17.594Z,5.16
2023-01-28T14:39:47.842Z,5.16
2023-01-28T14:42:20.457Z,5.08
2023-01-28T14:44:55.159Z,4.96
2023-01-28T14:47:40.341Z,4.91
2023-01-28T14:50:24.768Z,4.92
2023-01-28T14:53:09.564Z,4.87
2023-01-28T14:55:46.726Z,4.88
2023-01-28T14:58:20.883Z,4.81
2023-01-28T15:00:56.341Z,4.76
2023-01-28T15:03:25.372Z,4.70
2023-01-28T15:06:04.306Z,4.66
2023-01-28T15:08:32.335Z,4.58
2023-01-28T15:11:01.682Z,4.70
2023-01-28T15:13:30.613Z,4.70
2023-01-28T15:16:00.530Z,4.64
2023-01-28T15:18:32.261Z,4.63
2023-01-28T15:21:01.002Z,4.62
2023-01-28T15:23:33.946Z,4.58
2023-01-28T15:26:05.662Z,4.51
2023-01-28T15:28:34.569Z,4.46
2023-01-28T15:31:01.865Z,4.43
2023-01-28T15:33:29.112Z,4.39
2023-01-28T15:35:58.321Z,4.43
2023-01-28T15:38:27.961Z,4.51
2023-01-28T15:40:59.154Z,4.43
2023-01-28T15:43:29.675Z,4.43
2023-01-28T15:45:58.822Z,4.39
2023-01-28T15:48:27.385Z,4.54
2023-01-28T15:51:03.165Z,4.75
2023-01-28T15:53:34.764Z,4.73
2023-01-28T15:56:08.348Z,4.69
2023-01-28T15:58:37.482Z,4.60
2023-01-28T16:01:14.896Z,4.57
2023-01-28T16:03:43.922Z,4.56
2023-01-28T16:06:17.624Z,4.59
2023-01-28T16:08:53.001Z,4.86
2023-01-28T16:11:31.082Z,5.01
2023-01-28T16:13:58.576Z,5.06
2023-01-28T16:16:30.674Z,5.04
2023-01-28T16:18:58.298Z,4.92
2023-01-28T16:21:27.840Z,4.74
2023-01-28T16:24:00.863Z,4.60
2023-01-28T16:26:32.545Z,4.77
2023-01-28T16:29:02.511Z,4.86
2023-01-28T16:31:29.788Z,4.86
2023-01-28T16:33:56.723Z,4.81
2023-01-28T16:36:24.436Z,4.67
2023-01-28T16:38:51.391Z,4.57
2023-01-28T16:41:24.996Z,4.55
2023-01-28T16:43:53.291Z,4.44
2023-01-28T16:46:20.955Z,4.40
2023-01-28T16:48:47.889Z,4.38
2023-01-28T16:51:18.178Z,4.30
2023-01-28T16:53:47.180Z,4.31
2023-01-28T16:56:30.356Z,4.30
2023-01-28T16:59:04.406Z,4.30
2023-01-28T17:01:31.808Z,4.29
2023-01-28T17:03:58.790Z,4.18
2023-01-28T17:06:26.622Z,3.78
2023-01-28T17:08:53.557Z,3.40
2023-01-28T17:11:20.721Z,2.98
2023-01-28T17:13:47.670Z,2.79
2023-01-28T17:16:16.254Z,2.56
2023-01-28T17:18:43.211Z,2.46
2023-01-28T17:21:11.260Z,2.42
2023-01-28T17:23:39.145Z,2.39
2023-01-28T17:26:07.678Z,2.40
2023-01-28T17:28:34.972Z,2.43
2023-01-28T17:31:06.065Z,2.53
2023-01-28T17:33:34.470Z,2.74
2023-01-28T17:36:02.625Z,2.99
2023-01-28T17:38:32.045Z,3.33
2023-01-28T17:41:02.311Z,3.59
2023-01-28T17:43:29.395Z,3.77
2023-01-28T17:45:59.563Z,3.90
2023-01-28T17:48:35.713Z,3.95
2023-01-28T17:51:04.143Z,4.01
2023-01-28T17:53:31.250Z,4.08
2023-01-28T17:55:58.450Z,4.13
2023-01-28T17:58:25.459Z,4.17
2023-01-28T18:00:54.292Z,4.20
2023-01-28T18:03:21.733Z,4.23
2023-01-28T18:05:59.376Z,4.26
2023-01-28T18:08:26.560Z,4.30
2023-01-28T18:10:55.192Z,4.31
2023-01-28T18:13:22.233Z,4.33
2023-01-28T18:15:49.723Z,4.33
2023-01-28T18:18:16.699Z,4.32
2023-01-28T18:20:43.891Z,4.34
2023-01-28T18:23:12.561Z,4.36
2023-01-28T18:25:39.770Z,4.35
2023-01-28T18:28:08.403Z,4.33
2023-01-28T18:30:35.558Z,4.32
2023-01-28T18:33:02.574Z,4.31
2023-01-28T18:35:29.784Z,4.30
2023-01-28T18:38:02.392Z,4.32
2023-01-28T18:40:30.973Z,4.34
2023-01-28T18:42:58.073Z,4.34
2023-01-28T18:45:25.287Z,4.36
2023-01-28T18:47:52.183Z,4.36
2023-01-28T18:50:19.460Z,4.32
2023-01-28T18:52:47.507Z,4.37
2023-01-28T18:55:15.263Z,4.42
2023-01-28T18:57:44.707Z,4.37
2023-01-28T19:00:12.820Z,4.42
2023-01-28T19:02:39.770Z,4.44
2023-01-28T19:05:07.405Z,4.49
2023-01-28T19:07:34.340Z,4.52
2023-01-28T19:10:02.156Z,4.49
2023-01-28T19:12:29.806Z,4.48
2023-01-28T19:14:58.733Z,4.42
2023-01-28T19:17:25.651Z,4.40
2023-01-28T19:19:53.161Z,4.34
2023-01-28T19:22:20.293Z,4.37
2023-01-28T19:24:47.558Z,4.39
2023-01-28T19:27:14.780Z,4.33
2023-01-28T19:29:41.986Z,4.30
2023-01-28T19:32:10.373Z,4.27
2023-01-28T19:34:47.471Z,4.25
2023-01-28T19:37:15.350Z,4.24
2023-01-28T19:39:42.493Z,4.27
2023-01-28T19:42:10.188Z,4.27
2023-01-28T19:44:37.617Z,4.27
2023-01-28T19:47:10.755Z,4.24
2023-01-28T19:49:37.950Z,4.20
2023-01-28T19:52:08.981Z,4.05
2023-01-28T19:54:36.271Z,4.18
2023-01-28T19:57:03.358Z,4.14
2023-01-28T19:59:30.738Z,4.15
2023-01-28T20:01:57.846Z,4.11
2023-01-28T20:04:26.397Z,4.02
2023-01-28T20:06:53.407Z,3.89
2023-01-28T20:09:20.680Z,3.99
2023-01-28T20:11:47.675Z,3.96
2023-01-28T20:14:16.051Z,4.03
2023-01-28T20:16:42.950Z,4.00
2023-01-28T20:19:14.365Z,4.05
2023-01-28T20:21:43.366Z,3.97
2023-01-28T20:24:12.434Z,3.96
2023-01-28T20:26:41.871Z,3.97
2023-01-28T20:29:10.665Z,3.93
2023-01-28T20:31:39.389Z,3.87
2023-01-28T20:34:07.514Z,3.84
2023-01-28T20:36:34.599Z,3.84
2023-01-28T20:39:03.615Z,3.83
2023-01-28T20:41:30.540Z,3.78
2023-01-28T20:43:57.842Z,3.75
2023-01-28T20:46:30.196Z,3.68
2023-01-28T20:48:59.219Z,3.71
2023-01-28T20:51:28.890Z,3.74
2023-01-28T20:53:57.923Z,3.67
2023-01-28T20:56:27.373Z,3.65
2023-01-28T20:58:55.804Z,3.66
2023-01-28T21:01:24.542Z,3.67
2023-01-28T21:03:51.900Z,3.68
2023-01-28T21:06:19.758Z,3.62
2023-01-28T21:08:47.123Z,3.53
2023-01-28T21:11:14.544Z,3.53
2023-01-28T21:13:43.075Z,3.57
2023-01-28T21:16:10.223Z,3.59
2023-01-28T21:18:37.521Z,3.61
2023-01-28T21:21:06.970Z,3.53
2023-01-28T21:23:34.252Z,3.69
2023-01-28T21:26:02.072Z,3.59
2023-01-28T21:28:29.726Z,3.77
2023-01-28T21:31:07.024Z,3.70
2023-01-28T21:33:34.386Z,3.61
2023-01-28T21:36:02.055Z,3.65
2023-01-28T21:38:29.167Z,3.69
2023-01-28T21:41:01.991Z,3.73
2023-01-28T21:43:29.258Z,3.68
2023-01-28T21:45:57.146Z,3.67
2023-01-28T21:48:26.560Z,3.70
2023-01-28T21:51:12.119Z,3.71
2023-01-28T21:53:40.898Z,3.81
2023-01-28T21:56:10.170Z,3.79
2023-01-28T21:58:56.293Z,3.82
2023-01-28T22:01:23.508Z,3.71
2023-01-28T22:03:52.217Z,3.74
2023-01-28T22:06:19.132Z,3.77
2023-01-28T22:08:46.391Z,3.78
2023-01-28T22:11:13.362Z,3.75
2023-01-28T22:13:40.904Z,3.74
2023-01-28T22:16:08.664Z,3.76
2023-01-28T22:18:35.941Z,3.81
2023-01-28T22:21:06.645Z,3.83
2023-01-28T22:23:35.348Z,3.84
2023-01-28T22:26:03.895Z,3.81
2023-01-28T22:28:31.503Z,3.79
2023-01-28T22:31:10.634Z,3.87
2023-01-28T22:33:38.018Z,3.92
2023-01-28T22:36:08.306Z,3.91
2023-01-28T22:38:41.860Z,3.90
2023-01-28T22:41:10.783Z,3.90
2023-01-28T22:43:37.832Z,3.89
2023-01-28T22:46:06.691Z,3.88
2023-01-28T22:48:39.328Z,3.92
2023-01-28T22:51:10.891Z,3.93
2023-01-28T22:53:38.168Z,3.88
2023-01-28T22:56:06.029Z,3.87
2023-01-28T22:58:33.369Z,3.86
2023-01-28T23:01:00.487Z,3.74
2023-01-28T23:03:27.911Z,3.65
2023-01-28T23:05:58.548Z,3.65
2023-01-28T23:08:27.718Z,3.68
2023-01-28T23:10:57.571Z,3.66
2023-01-28T23:13:26.301Z,3.68
2023-01-28T23:16:12.397Z,3.68
2023-01-28T23:18:58.290Z,3.66
2023-01-28T23:21:46.154Z,3.66
2023-01-28T23:24:21.279Z,3.68
2023-01-28T23:26:52.447Z,3.72
2023-01-28T23:29:23.825Z,3.74
2023-01-28T23:31:53.963Z,3.71
2023-01-28T23:34:22.584Z,3.65
2023-01-28T23:36:50.545Z,3.66
2023-01-28T23:39:19.701Z,3.68
2023-01-28T23:41:46.809Z,3.65
2023-01-28T23:44:13.969Z,3.67
2023-01-28T23:46:40.938Z,3.72
2023-01-28T23:49:09.650Z,3.74
2023-01-28T23:51:36.779Z,3.75
2023-01-28T23:54:04.162Z,3.72
2023-01-28T23:56:34.051Z,3.68
2023-01-28T23:59:02.559Z,3.63
